Time;durP1;ratioP1;P1;durP2;ratioP2;P2;SDS_P1;SDS_P2;PMS_P1;PMS_P2;Temp;Humidity;BMP_temperature;BMP_pressure;BME280_temperature;BME280_humidity;BME280_pressure;Samples;Min_cycle;Max_cycle;Signal;HPM_P1;HPM_P2
2022/02/25 00:00:54;;;;;;;1.23;0.73;;;5.70;72.90;;;;;;5045037;28;20487;-47
2022/02/25 00:03:21;;;;;;;6.40;1.47;;;5.70;72.90;;;;;;5043952;28;20539;-47
2022/02/25 00:05:48;;;;;;;1.53;0.97;;;5.70;72.80;;;;;;5034147;28;20468;-47
2022/02/25 00:08:15;;;;;;;0.97;0.97;;;5.60;73.00;;;;;;5033451;28;20864;-48
2022/02/25 00:10:42;;;;;;;2.17;1.00;;;5.60;73.00;;;;;;5021767;28;20551;-47
2022/02/25 00:13:08;;;;;;;1.10;0.80;;;5.70;72.40;;;;;;5036005;28;20543;-47
2022/02/25 00:15:35;;;;;;;2.00;0.97;;;5.60;72.50;;;;;;5033094;28;20558;-47
2022/02/25 00:18:02;;;;;;;1.30;0.90;;;5.60;72.60;;;;;;5041197;28;20487;-47
2022/02/25 00:20:29;;;;;;;3.13;1.00;;;5.60;72.60;;;;;;5051917;28;20465;-48
2022/02/25 00:22:56;;;;;;;2.80;0.90;;;5.60;72.50;;;;;;5035738;28;20574;-47
2022/02/25 00:25:22;;;;;;;1.20;0.80;;;5.60;72.10;;;;;;5036945;28;20818;-47
2022/02/25 00:27:49;;;;;;;1.87;0.97;;;5.50;72.90;;;;;;5033501;28;20574;-48
2022/02/25 00:30:16;;;;;;;2.30;0.87;;;5.50;72.60;;;;;;5038705;28;20936;-48
2022/02/25 00:32:43;;;;;;;0.83;0.83;;;5.50;72.90;;;;;;5036329;28;20541;-48
2022/02/25 00:35:10;;;;;;;1.33;1.00;;;5.50;72.70;;;;;;5036942;28;20482;-48
2022/02/25 00:37:37;;;;;;;1.80;1.10;;;5.50;73.00;;;;;;5032964;28;20539;-48
2022/02/25 00:40:05;;;;;;;1.50;0.97;;;5.50;72.30;;;;;;5031550;28;20506;-47
2022/02/25 00:42:32;;;;;;;1.90;1.30;;;5.50;72.10;;;;;;5031280;28;20531;-48
2022/02/25 00:44:59;;;;;;;1.87;1.20;;;5.50;72.00;;;;;;5048526;28;20484;-48
2022/02/25 00:47:26;;;;;;;6.40;1.33;;;5.50;71.80;;;;;;5035120;28;20522;-47
2022/02/25 00:49:53;;;;;;;2.57;1.30;;;5.40;72.30;;;;;;5036581;28;20566;-48
2022/02/25 00:52:21;;;;;;;3.00;0.90;;;5.40;72.30;;;;;;5036005;28;21012;-48
2022/02/25 00:54:47;;;;;;;2.07;1.27;;;5.40;72.70;;;;;;5034735;28;20453;-47
2022/02/25 00:57:14;;;;;;;2.23;1.43;;;5.40;72.00;;;;;;5031114;28;20456;-47
2022/02/25 00:59:41;;;;;;;1.53;1.43;;;5.40;71.60;;;;;;5034268;28;20821;-48
2022/02/25 01:02:08;;;;;;;3.10;1.60;;;5.30;72.00;;;;;;5033455;28;20551;-48
2022/02/25 01:04:35;;;;;;;1.63;1.50;;;5.30;72.20;;;;;;5032727;28;20456;-47
2022/02/25 01:07:03;;;;;;;1.70;1.10;;;5.20;71.80;;;;;;5028076;28;20495;-48
2022/02/25 01:09:30;;;;;;;0.90;0.90;;;5.20;72.30;;;;;;5042279;28;20620;-47
2022/02/25 01:11:58;;;;;;;2.00;1.30;;;5.20;72.20;;;;;;5034626;28;20459;-48
2022/02/25 01:14:25;;;;;;;1.57;1.37;;;5.10;72.20;;;;;;5033250;28;20463;-48
2022/02/25 01:16:52;;;;;;;5.13;1.40;;;5.10;72.00;;;;;;5033626;28;20465;-48
2022/02/25 01:19:19;;;;;;;1.93;0.90;;;5.00;72.50;;;;;;5037655;28;20488;-48
2022/02/25 01:21:46;;;;;;;1.30;1.03;;;5.00;72.10;;;;;;5044552;28;20530;-47
2022/02/25 01:24:13;;;;;;;1.87;0.90;;;5.00;72.90;;;;;;5033624;28;20548;-48
2022/02/25 01:26:40;;;;;;;2.00;1.50;;;5.00;73.50;;;;;;5022251;28;20556;-48
2022/02/25 01:29:07;;;;;;;1.30;1.20;;;5.00;72.80;;;;;;5032737;28;20911;-48
2022/02/25 01:31:34;;;;;;;1.60;1.07;;;5.10;72.20;;;;;;5033248;28;21032;-48
2022/02/25 01:34:00;;;;;;;1.60;1.30;;;5.00;72.50;;;;;;5028895;28;20516;-48
2022/02/25 01:36:27;;;;;;;2.30;1.20;;;5.00;72.50;;;;;;5050380;28;20539;-47
2022/02/25 01:38:54;;;;;;;2.50;1.80;;;5.00;72.10;;;;;;5033016;28;20495;-47
2022/02/25 01:41:21;;;;;;;1.43;1.03;;;5.00;72.60;;;;;;5037753;28;20472;-47
2022/02/25 01:43:48;;;;;;;2.97;1.10;;;5.00;72.70;;;;;;5048962;28;20870;-48
2022/02/25 01:46:15;;;;;;;3.67;1.70;;;4.90;72.70;;;;;;5011547;28;20492;-47
2022/02/25 01:48:42;;;;;;;1.07;0.97;;;4.90;72.20;;;;;;5032337;28;20579;-48
2022/02/25 01:51:09;;;;;;;1.67;1.10;;;4.90;72.50;;;;;;5035297;28;20518;-48
2022/02/25 01:53:36;;;;;;;4.60;1.40;;;4.80;72.20;;;;;;5034879;28;20488;-48
2022/02/25 01:56:03;;;;;;;1.60;1.00;;;4.80;72.40;;;;;;5035554;28;20452;-48
2022/02/25 01:58:30;;;;;;;3.90;0.80;;;4.70;72.50;;;;;;5016192;28;20466;-48
2022/02/25 02:00:59;;;;;;;1.73;1.10;;;4.70;72.90;;;;;;5032513;28;20542;-48
2022/02/25 02:03:27;;;;;;;3.03;1.30;;;4.60;73.20;;;;;;5023728;28;20455;-48
2022/02/25 02:05:54;;;;;;;2.27;1.30;;;4.60;73.20;;;;;;5032105;28;20468;-48
2022/02/25 02:08:22;;;;;;;1.77;1.17;;;4.50;73.20;;;;;;5029916;28;20487;-48
2022/02/25 02:10:52;;;;;;;1.30;0.77;;;4.50;73.60;;;;;;5039065;28;20453;-48
2022/02/25 02:13:19;;;;;;;1.40;1.07;;;4.40;73.60;;;;;;5036149;28;20499;-48
2022/02/25 02:15:46;;;;;;;1.60;0.90;;;4.40;74.10;;;;;;5032362;28;20464;-48
2022/02/25 02:18:13;;;;;;;2.50;1.10;;;4.40;74.00;;;;;;5014028;28;20528;-48
2022/02/25 02:20:39;;;;;;;1.50;0.80;;;4.30;74.40;;;;;;5038575;28;20540;-49
2022/02/25 02:23:07;;;;;;;5.63;0.83;;;4.30;74.40;;;;;;5034159;28;20455;-48
2022/02/25 02:25:33;;;;;;;1.63;1.20;;;4.30;74.40;;;;;;5035684;28;20563;-48
2022/02/25 02:28:18;;;;;;;1.80;0.93;;;4.30;74.40;;;;;;5030645;28;20488;-48
2022/02/25 02:30:46;;;;;;;1.50;1.27;;;4.30;74.60;;;;;;5032129;28;20588;-49
2022/02/25 02:33:13;;;;;;;2.10;0.73;;;4.30;74.70;;;;;;5032550;28;20495;-48
2022/02/25 02:35:40;;;;;;;3.80;1.23;;;4.20;74.60;;;;;;5035134;28;20458;-48
2022/02/25 02:38:07;;;;;;;2.33;0.60;;;4.20;75.00;;;;;;5051801;28;20466;-48
2022/02/25 02:40:34;;;;;;;2.03;0.70;;;4.20;74.90;;;;;;5031360;28;20474;-48
2022/02/25 02:43:00;;;;;;;1.43;0.70;;;4.20;74.60;;;;;;5034171;28;20451;-49
2022/02/25 02:45:27;;;;;;;1.07;0.90;;;4.20;75.10;;;;;;5035335;28;20466;-48
2022/02/25 02:47:54;;;;;;;1.70;0.97;;;4.20;75.10;;;;;;5031999;28;20502;-48
2022/02/25 02:50:21;;;;;;;1.83;0.97;;;4.20;75.30;;;;;;5031254;28;20492;-48
2022/02/25 02:52:47;;;;;;;1.10;1.00;;;4.10;75.80;;;;;;5017331;28;20445;-48
2022/02/25 02:55:14;;;;;;;2.20;1.00;;;4.10;75.40;;;;;;5035119;28;20455;-48
2022/02/25 02:57:43;;;;;;;1.33;1.23;;;4.10;75.60;;;;;;5019764;28;20460;-48
2022/02/25 03:00:10;;;;;;;2.93;1.57;;;4.10;75.60;;;;;;5036510;28;20470;-48
2022/02/25 03:02:38;;;;;;;2.40;1.30;;;4.10;75.60;;;;;;5032242;28;20463;-48
2022/02/25 03:05:08;;;;;;;2.73;1.03;;;4.00;75.80;;;;;;5037383;28;20551;-48
2022/02/25 03:07:34;;;;;;;2.63;1.13;;;4.00;75.80;;;;;;5033565;28;20479;-48
2022/02/25 03:10:06;;;;;;;5.60;1.30;;;4.00;76.00;;;;;;5030904;28;20488;-49
2022/02/25 03:12:33;;;;;;;1.20;1.07;;;4.00;75.90;;;;;;5032914;28;20445;-48
2022/02/25 03:15:00;;;;;;;2.63;0.80;;;4.00;76.00;;;;;;5033479;28;20518;-48
2022/02/25 03:17:26;;;;;;;1.73;0.97;;;4.00;76.20;;;;;;5027545;28;20916;-48
2022/02/25 03:19:53;;;;;;;1.67;0.70;;;4.00;76.10;;;;;;5010906;28;20562;-46
2022/02/25 03:22:22;;;;;;;4.47;1.17;;;4.00;75.90;;;;;;5019341;28;20484;-46
2022/02/25 03:24:48;;;;;;;3.57;0.80;;;4.00;76.10;;;;;;5019344;28;20451;-46
2022/02/25 03:27:15;;;;;;;1.30;0.87;;;4.00;76.20;;;;;;5017556;28;20465;-46
2022/02/25 03:29:42;;;;;;;3.00;0.90;;;4.00;76.40;;;;;;5017061;28;20486;-47
2022/02/25 03:32:09;;;;;;;3.20;1.30;;;4.00;76.40;;;;;;5016619;28;20451;-47
2022/02/25 03:34:39;;;;;;;2.80;1.43;;;4.10;76.50;;;;;;5014874;28;20463;-47
2022/02/25 03:37:07;;;;;;;2.73;1.17;;;4.10;76.80;;;;;;5019025;28;20736;-47
2022/02/25 03:39:33;;;;;;;1.67;1.10;;;4.10;76.60;;;;;;5033971;28;20451;-47
2022/02/25 03:42:00;;;;;;;2.70;1.00;;;4.20;76.00;;;;;;5019014;28;20463;-46
2022/02/25 03:44:27;;;;;;;2.70;1.53;;;4.20;75.80;;;;;;5017351;28;20550;-46
2022/02/25 03:46:54;;;;;;;3.93;1.27;;;4.20;75.80;;;;;;5018952;28;20479;-46
2022/02/25 03:49:21;;;;;;;5.97;1.47;;;4.10;76.00;;;;;;5014296;28;20487;-47
2022/02/25 03:51:48;;;;;;;5.13;1.60;;;4.10;76.40;;;;;;5018457;28;20910;-47
2022/02/25 03:54:15;;;;;;;3.17;1.73;;;4.10;76.00;;;;;;5007067;28;20463;-46
2022/02/25 03:56:42;;;;;;;2.60;1.37;;;4.10;76.70;;;;;;5017090;28;20461;-46
2022/02/25 03:59:08;;;;;;;2.23;1.20;;;4.10;76.40;;;;;;5017725;28;20471;-46
2022/02/25 04:01:35;;;;;;;2.10;1.20;;;4.10;76.60;;;;;;5020299;28;20462;-47
2022/02/25 04:04:02;;;;;;;4.73;1.67;;;4.20;76.00;;;;;;5019102;28;20464;-46
2022/02/25 04:06:30;;;;;;;1.80;1.33;;;4.20;75.60;;;;;;5017295;28;20479;-46
2022/02/25 04:08:56;;;;;;;3.97;1.67;;;4.20;76.10;;;;;;5017567;28;20458;-46
2022/02/25 04:11:25;;;;;;;3.43;1.47;;;4.20;75.70;;;;;;5003187;28;20464;-47
2022/02/25 04:13:53;;;;;;;6.13;1.63;;;4.10;75.50;;;;;;4998384;28;20461;-47
2022/02/25 04:16:21;;;;;;;3.80;2.00;;;4.10;75.70;;;;;;5013852;28;20546;-47
2022/02/25 04:18:47;;;;;;;4.20;1.23;;;4.10;75.90;;;;;;5020786;28;20464;-48
2022/02/25 04:21:17;;;;;;;2.23;1.37;;;4.10;76.10;;;;;;5019103;28;20801;-48
2022/02/25 04:23:44;;;;;;;3.80;1.57;;;4.10;76.10;;;;;;5019536;28;20990;-46
2022/02/25 04:26:11;;;;;;;1.50;1.00;;;4.10;76.10;;;;;;5032473;28;20464;-46
2022/02/25 04:28:38;;;;;;;5.37;1.70;;;4.10;76.40;;;;;;5017195;28;20973;-46
2022/02/25 04:31:04;;;;;;;2.00;1.30;;;4.10;76.20;;;;;;5006139;28;20482;-46
2022/02/25 04:33:32;;;;;;;3.30;1.50;;;4.10;75.90;;;;;;5003559;28;21002;-46
2022/02/25 04:35:59;;;;;;;2.93;1.07;;;4.10;76.30;;;;;;5033351;28;20516;-46
2022/02/25 04:38:25;;;;;;;6.63;1.20;;;4.10;76.40;;;;;;5022861;28;20471;-46
2022/02/25 04:40:52;;;;;;;5.50;1.87;;;4.10;76.80;;;;;;5016289;28;20894;-46
2022/02/25 04:43:19;;;;;;;6.10;1.70;;;4.10;76.80;;;;;;5005264;28;20464;-46
2022/02/25 04:45:47;;;;;;;1.77;1.20;;;4.20;76.30;;;;;;5022338;28;20891;-47
2022/02/25 04:48:13;;;;;;;2.10;1.27;;;4.10;76.60;;;;;;5020576;28;20478;-47
2022/02/25 04:50:40;;;;;;;1.93;0.93;;;4.20;76.50;;;;;;5019699;28;20500;-47
2022/02/25 04:53:07;;;;;;;5.33;1.57;;;4.20;76.10;;;;;;5018933;28;20968;-47
2022/02/25 04:55:34;;;;;;;3.70;1.23;;;4.20;75.70;;;;;;5020236;28;20463;-46
2022/02/25 04:58:01;;;;;;;3.47;1.60;;;4.20;76.10;;;;;;5020553;28;20806;-47
2022/02/25 05:00:28;;;;;;;4.00;1.53;;;4.20;76.30;;;;;;5022395;28;20474;-47
2022/02/25 05:02:55;;;;;;;3.17;1.47;;;4.20;75.90;;;;;;5021768;28;20900;-46
2022/02/25 05:05:22;;;;;;;9.47;3.33;;;4.30;75.50;;;;;;5008856;28;20452;-46
2022/02/25 05:07:48;;;;;;;5.43;1.30;;;4.30;75.50;;;;;;5022387;28;20471;-46
2022/02/25 05:10:15;;;;;;;4.03;1.70;;;4.20;75.70;;;;;;5019568;28;20552;-46
2022/02/25 05:12:42;;;;;;;2.07;1.80;;;4.20;75.70;;;;;;5034419;28;20882;-46
2022/02/25 05:20:40;;;;;;;6.13;1.23;;;4.20;76.20;;;;;;5022105;28;20463;-46
2022/02/25 05:23:07;;;;;;;4.00;2.03;;;4.20;76.10;;;;;;5001048;28;20460;-46
2022/02/25 05:25:34;;;;;;;2.87;1.60;;;4.20;75.90;;;;;;5019354;28;20896;-46
2022/02/25 05:28:01;;;;;;;2.23;1.73;;;4.20;76.00;;;;;;5016084;28;20471;-47
2022/02/25 05:30:29;;;;;;;3.07;1.40;;;4.20;75.70;;;;;;5026178;28;20523;-46
2022/02/25 05:32:56;;;;;;;3.53;1.60;;;4.20;75.80;;;;;;5024158;28;20450;-46
2022/02/25 05:35:24;;;;;;;1.97;1.00;;;4.20;76.00;;;;;;5023192;28;21007;-46
2022/02/25 05:37:55;;;;;;;2.53;1.67;;;4.10;75.60;;;;;;5021344;28;20881;-46
2022/02/25 05:40:22;;;;;;;3.20;1.43;;;4.00;76.10;;;;;;5017905;28;20469;-46
2022/02/25 05:42:51;;;;;;;2.37;1.43;;;4.00;75.90;;;;;;5006590;28;21075;-46
2022/02/25 05:45:18;;;;;;;3.83;1.77;;;4.00;76.20;;;;;;5016333;28;20974;-46
2022/02/25 05:47:45;;;;;;;2.07;1.20;;;4.00;76.00;;;;;;5013673;28;20483;-47
2022/02/25 05:50:15;;;;;;;5.63;1.67;;;4.00;76.30;;;;;;5018969;28;20500;-46
2022/02/25 05:52:44;;;;;;;4.93;1.60;;;4.00;76.30;;;;;;5031533;28;20949;-47
2022/02/25 05:55:13;;;;;;;1.70;1.60;;;4.00;76.60;;;;;;5001668;28;21246;-47
2022/02/25 05:57:40;;;;;;;7.20;1.90;;;4.00;76.90;;;;;;5019223;28;20467;-46
2022/02/25 06:00:09;;;;;;;5.63;1.97;;;4.00;76.40;;;;;;5033669;28;20474;-46
2022/02/25 06:02:36;;;;;;;3.63;2.13;;;4.00;76.60;;;;;;5021477;28;20470;-47
2022/02/25 06:05:03;;;;;;;3.63;1.47;;;3.90;76.00;;;;;;5017602;28;20460;-47
2022/02/25 06:07:30;;;;;;;5.40;1.60;;;3.90;76.80;;;;;;5014748;28;20971;-46
2022/02/25 06:09:57;;;;;;;5.23;1.67;;;3.90;76.70;;;;;;5014829;28;20488;-47
2022/02/25 06:12:24;;;;;;;4.77;1.80;;;3.90;77.00;;;;;;5005092;28;20963;-47
2022/02/25 06:14:51;;;;;;;4.43;1.23;;;3.90;77.30;;;;;;4999341;28;20459;-47
2022/02/25 06:17:17;;;;;;;4.17;1.90;;;3.90;76.80;;;;;;5018200;28;20460;-47
2022/02/25 06:19:44;;;;;;;6.13;1.90;;;3.90;76.70;;;;;;5003834;28;20471;-47
2022/02/25 06:22:16;;;;;;;1.70;1.50;;;3.80;76.90;;;;;;5014880;28;20484;-47
2022/02/25 06:24:43;;;;;;;5.50;1.53;;;3.80;77.10;;;;;;5018757;28;20563;-47
2022/02/25 06:27:10;;;;;;;4.53;2.10;;;3.80;77.20;;;;;;5017385;28;20531;-47
2022/02/25 06:29:36;;;;;;;6.67;2.40;;;3.80;77.60;;;;;;5018622;28;20826;-47
2022/02/25 06:32:03;;;;;;;3.93;1.93;;;3.80;77.20;;;;;;5020701;28;20464;-47
2022/02/25 06:34:35;;;;;;;2.63;1.77;;;3.90;77.10;;;;;;5020508;28;20457;-47
2022/02/25 06:37:04;;;;;;;6.43;2.20;;;3.90;77.00;;;;;;5014707;28;20459;-47
2022/02/25 06:39:31;;;;;;;3.70;1.90;;;3.80;77.00;;;;;;5016501;28;20532;-47
2022/02/25 06:41:57;;;;;;;4.77;2.20;;;3.80;77.10;;;;;;5019619;28;20461;-47
2022/02/25 06:44:24;;;;;;;8.40;2.40;;;3.80;77.50;;;;;;5018195;28;20447;-47
2022/02/25 06:46:51;;;;;;;3.57;1.70;;;3.80;77.10;;;;;;5016418;28;20515;-47
2022/02/25 06:49:18;;;;;;;6.07;3.13;;;3.80;77.70;;;;;;5015384;28;20457;-47
2022/02/25 06:51:45;;;;;;;3.20;2.90;;;3.80;78.40;;;;;;5028565;28;20574;-47
2022/02/25 06:54:12;;;;;;;5.83;1.60;;;3.80;78.10;;;;;;5017015;28;20464;-47
2022/02/25 06:56:39;;;;;;;3.27;1.90;;;3.90;77.90;;;;;;5015997;28;20975;-47
2022/02/25 06:59:05;;;;;;;7.60;1.83;;;3.90;77.80;;;;;;5029423;28;20550;-46
2022/02/25 07:01:32;;;;;;;4.20;2.00;;;3.90;77.40;;;;;;5005324;28;20551;-46
2022/02/25 07:04:00;;;;;;;9.03;2.53;;;3.90;77.60;;;;;;5005147;28;21025;-46
2022/02/25 07:06:27;;;;;;;6.33;2.43;;;3.90;77.30;;;;;;5011237;28;20880;-46
2022/02/25 07:08:54;;;;;;;4.37;2.23;;;3.90;77.50;;;;;;5020348;28;20460;-46
2022/02/25 07:11:21;;;;;;;5.73;2.50;;;4.00;77.20;;;;;;4996384;28;20493;-46
2022/02/25 07:13:48;;;;;;;6.57;1.73;;;4.00;77.00;;;;;;5017555;28;21076;-46
2022/02/25 07:16:15;;;;;;;4.63;2.33;;;4.00;77.10;;;;;;5005822;28;20543;-46
2022/02/25 07:18:41;;;;;;;10.80;1.90;;;3.90;77.20;;;;;;5015194;28;20484;-46
2022/02/25 07:21:11;;;;;;;5.13;2.20;;;3.90;77.40;;;;;;5000833;28;20459;-46
2022/02/25 07:23:39;;;;;;;2.93;1.57;;;3.90;77.60;;;;;;5017094;28;20470;-46
2022/02/25 07:26:09;;;;;;;4.13;2.10;;;3.90;77.60;;;;;;5017801;28;20925;-46
2022/02/25 07:28:36;;;;;;;3.93;1.93;;;3.90;77.60;;;;;;5016304;28;21128;-47
2022/02/25 07:31:03;;;;;;;2.40;1.77;;;3.90;77.90;;;;;;5021532;28;20487;-47
2022/02/25 07:33:30;;;;;;;4.80;2.03;;;3.90;77.50;;;;;;5018263;28;20460;-47
2022/02/25 07:35:56;;;;;;;3.50;1.93;;;4.00;77.50;;;;;;5014409;28;20487;-47
2022/02/25 07:38:24;;;;;;;5.20;1.87;;;4.10;77.10;;;;;;5018049;28;20557;-47
2022/02/25 07:40:50;;;;;;;4.73;1.83;;;4.10;76.90;;;;;;5020270;28;20810;-47
2022/02/25 07:43:19;;;;;;;2.40;2.10;;;4.10;77.00;;;;;;5000009;28;21266;-48
2022/02/25 07:45:47;;;;;;;4.23;2.13;;;4.20;77.10;;;;;;5009245;28;21176;-48
2022/02/25 07:48:14;;;;;;;5.53;2.33;;;4.20;76.60;;;;;;5015764;28;21022;-47
2022/02/25 07:50:42;;;;;;;2.53;1.90;;;4.20;76.50;;;;;;5018440;28;20518;-47
2022/02/25 07:53:08;;;;;;;14.03;2.83;;;4.20;76.90;;;;;;5019569;28;20470;-47
2022/02/25 07:55:35;;;;;;;6.13;3.10;;;4.30;76.80;;;;;;5014187;28;20903;-47
2022/02/25 07:58:02;;;;;;;12.90;2.27;;;4.30;76.40;;;;;;5013331;28;20494;-47
2022/02/25 08:00:30;;;;;;;4.00;1.90;;;4.30;76.60;;;;;;5013461;28;20492;-48
2022/02/25 08:02:58;;;;;;;10.37;2.50;;;4.40;77.00;;;;;;5015395;28;20463;-47
2022/02/25 08:05:31;;;;;;;5.33;1.53;;;4.40;77.00;;;;;;5019215;28;20475;-47
2022/02/25 08:08:00;;;;;;;2.90;1.77;;;4.50;76.60;;;;;;5016051;28;20455;-47
2022/02/25 08:10:28;;;;;;;4.13;2.43;;;4.60;76.10;;;;;;5004968;28;20553;-47
2022/02/25 08:12:55;;;;;;;3.17;2.87;;;4.60;75.60;;;;;;5018014;28;20467;-47
2022/02/25 08:15:22;;;;;;;4.30;2.00;;;4.60;75.70;;;;;;5023089;28;20459;-47
2022/02/25 08:17:49;;;;;;;3.43;1.60;;;4.60;76.40;;;;;;5002531;28;20452;-48
2022/02/25 08:20:16;;;;;;;5.57;2.10;;;4.70;75.80;;;;;;5009608;28;20495;-47
2022/02/25 08:22:43;;;;;;;6.27;2.53;;;4.80;75.10;;;;;;5020189;28;20561;-47
2022/02/25 08:25:11;;;;;;;12.93;3.90;;;4.90;74.90;;;;;;5022070;28;20459;-47
2022/02/25 08:27:38;;;;;;;7.30;2.37;;;5.00;74.60;;;;;;5008583;28;20477;-47
2022/02/25 08:30:14;;;;;;;6.27;2.53;;;5.10;74.00;;;;;;5018571;28;20456;-47
2022/02/25 08:32:44;;;;;;;7.57;2.60;;;5.20;74.30;;;;;;5022406;28;20459;-47
2022/02/25 08:35:10;;;;;;;6.17;2.13;;;5.30;74.50;;;;;;5023862;28;20801;-48
2022/02/25 08:37:37;;;;;;;11.47;2.63;;;5.40;73.80;;;;;;5011509;28;20460;-48
2022/02/25 08:40:06;;;;;;;6.97;2.00;;;5.50;73.90;;;;;;5022444;28;20828;-48
2022/02/25 08:42:35;;;;;;;10.73;2.63;;;5.60;72.70;;;;;;5021329;28;20817;-48
2022/02/25 08:45:05;;;;;;;3.77;2.23;;;5.70;72.60;;;;;;5020827;28;20455;-48
2022/02/25 08:47:32;;;;;;;11.77;2.43;;;5.80;72.60;;;;;;5020712;28;20480;-48
2022/02/25 08:49:58;;;;;;;3.33;1.70;;;5.90;72.30;;;;;;5019854;28;20551;-47
2022/02/25 08:52:26;;;;;;;3.63;2.40;;;6.00;71.10;;;;;;5024569;28;20575;-47
2022/02/25 08:54:54;;;;;;;4.60;2.30;;;6.00;70.90;;;;;;5019308;28;20456;-47
2022/02/25 08:57:21;;;;;;;5.40;2.63;;;6.10;71.50;;;;;;5002484;28;20459;-47
2022/02/25 08:59:48;;;;;;;6.83;2.43;;;6.10;71.10;;;;;;5020812;28;20460;-48
2022/02/25 09:02:15;;;;;;;5.27;2.50;;;6.10;71.20;;;;;;5010613;28;20538;-47
2022/02/25 09:04:43;;;;;;;5.00;1.60;;;6.10;70.00;;;;;;5019478;28;20497;-47
2022/02/25 09:07:10;;;;;;;10.60;2.57;;;6.10;70.20;;;;;;5021161;28;20471;-48
2022/02/25 09:09:37;;;;;;;4.43;1.90;;;6.10;70.60;;;;;;5022258;28;20460;-48
2022/02/25 09:12:04;;;;;;;7.37;2.50;;;6.20;70.80;;;;;;5025077;28;20504;-47
2022/02/25 09:14:31;;;;;;;4.53;2.30;;;6.20;70.90;;;;;;5019176;28;20465;-48
2022/02/25 09:16:58;;;;;;;5.00;2.43;;;6.30;71.00;;;;;;5036226;28;20538;-47
2022/02/25 09:19:24;;;;;;;2.67;1.77;;;6.30;70.70;;;;;;5019076;28;20793;-48
2022/02/25 09:21:51;;;;;;;3.20;1.93;;;6.40;70.20;;;;;;5030471;28;20462;-48
2022/02/25 09:24:21;;;;;;;8.63;2.90;;;6.50;70.20;;;;;;5020188;28;20977;-48
2022/02/25 09:26:48;;;;;;;3.43;1.90;;;6.50;69.50;;;;;;5017482;28;20801;-47
2022/02/25 09:29:16;;;;;;;7.00;3.43;;;6.50;69.80;;;;;;5016737;28;20461;-48
2022/02/25 09:31:43;;;;;;;8.87;2.50;;;6.60;70.60;;;;;;5020922;28;20494;-48
2022/02/25 09:34:09;;;;;;;8.50;2.83;;;6.60;70.20;;;;;;5019007;28;20537;-47
2022/02/25 09:36:36;;;;;;;7.80;3.43;;;6.70;70.20;;;;;;5005621;28;20452;-47
2022/02/25 09:39:03;;;;;;;7.70;2.33;;;6.70;70.60;;;;;;5020290;28;20464;-47
2022/02/25 09:41:31;;;;;;;3.87;2.43;;;6.80;69.40;;;;;;5018975;28;20460;-47
2022/02/25 09:43:58;;;;;;;7.53;2.43;;;6.80;69.00;;;;;;5016196;28;20474;-47
2022/02/25 09:46:24;;;;;;;6.90;2.77;;;6.80;69.30;;;;;;5021894;28;21079;-48
2022/02/25 09:48:51;;;;;;;4.83;2.17;;;6.80;69.50;;;;;;5019063;28;20518;-47
2022/02/25 09:51:20;;;;;;;4.57;2.03;;;6.90;69.60;;;;;;5021056;28;20874;-47
2022/02/25 09:53:47;;;;;;;5.03;2.27;;;7.00;69.70;;;;;;5017865;28;20517;-48
2022/02/25 09:56:14;;;;;;;7.90;2.50;;;7.20;69.30;;;;;;5031784;28;20563;-48
2022/02/25 09:58:41;;;;;;;5.20;2.13;;;7.20;69.00;;;;;;5024029;28;20921;-47
2022/02/25 10:01:11;;;;;;;6.37;2.43;;;7.30;67.90;;;;;;5020818;28;20460;-48
2022/02/25 10:03:38;;;;;;;5.60;2.80;;;7.20;67.00;;;;;;5015733;28;20502;-47
2022/02/25 10:06:09;;;;;;;5.23;2.27;;;7.10;67.70;;;;;;5017006;28;20896;-47
2022/02/25 10:08:37;;;;;;;5.67;2.70;;;7.00;68.20;;;;;;5006177;28;20452;-47
2022/02/25 10:11:04;;;;;;;3.27;2.30;;;6.90;67.90;;;;;;5018561;28;20487;-47
2022/02/25 10:13:33;;;;;;;10.23;3.07;;;6.90;68.40;;;;;;5019493;28;20475;-48
2022/02/25 10:16:24;;;;;;;4.73;2.40;;;6.80;68.50;;;;;;5019076;28;20497;-47
2022/02/25 10:19:00;;;;;;;8.37;2.60;;;6.70;69.30;;;;;;5015284;28;20460;-47
2022/02/25 10:21:27;;;;;;;7.67;2.87;;;6.60;69.30;;;;;;5019143;28;20971;-47
2022/02/25 10:23:54;;;;;;;12.40;3.70;;;6.60;70.00;;;;;;5018961;28;20967;-47
2022/02/25 10:26:22;;;;;;;5.63;2.77;;;6.60;70.00;;;;;;5017281;28;20463;-47
2022/02/25 10:28:52;;;;;;;6.43;2.30;;;6.60;69.80;;;;;;5034265;28;20470;-47
2022/02/25 10:31:27;;;;;;;4.20;2.20;;;6.60;70.20;;;;;;5005519;28;20490;-47
2022/02/25 10:34:16;;;;;;;8.83;2.27;;;6.70;69.80;;;;;;5015923;28;20461;-47
2022/02/25 10:36:53;;;;;;;10.70;2.67;;;6.70;69.50;;;;;;5021533;28;20487;-47
2022/02/25 10:39:29;;;;;;;8.20;2.13;;;6.70;69.60;;;;;;5017335;28;20965;-47
2022/02/25 10:42:04;;;;;;;9.50;2.77;;;6.70;69.60;;;;;;5015885;28;20499;-47
2022/02/25 10:44:42;;;;;;;8.03;2.70;;;6.80;69.80;;;;;;5015358;28;20481;-47
2022/02/25 10:47:17;;;;;;;5.73;2.73;;;6.80;69.40;;;;;;5015821;28;20475;-47
2022/02/25 10:49:44;;;;;;;7.97;2.27;;;6.80;69.50;;;;;;5037075;28;20469;-47
2022/02/25 10:52:27;;;;;;;7.83;3.20;;;6.80;69.10;;;;;;5018064;28;20491;-47
2022/02/25 10:54:56;;;;;;;5.97;2.80;;;6.80;69.70;;;;;;5021377;28;20463;-47
2022/02/25 10:57:25;;;;;;;9.00;3.30;;;6.80;70.20;;;;;;5017064;28;20469;-47
2022/02/25 10:59:53;;;;;;;4.80;2.57;;;6.90;70.20;;;;;;5018891;28;20461;-47
2022/02/25 11:02:36;;;;;;;6.10;2.70;;;6.90;69.50;;;;;;5016643;28;20573;-47
2022/02/25 11:05:18;;;;;;;7.83;2.03;;;6.90;69.10;;;;;;5004071;28;20467;-47
2022/02/25 11:07:50;;;;;;;4.17;1.47;;;6.90;68.50;;;;;;5036427;28;20526;-47
2022/02/25 11:10:23;;;;;;;5.17;2.00;;;6.90;67.70;;;;;;5018427;28;21039;-47
2022/02/25 11:12:53;;;;;;;3.57;1.97;;;6.90;67.60;;;;;;5004720;28;20488;-47
2022/02/25 11:15:29;;;;;;;5.60;2.40;;;7.00;68.90;;;;;;5033973;28;20450;-47
2022/02/25 11:17:57;;;;;;;7.43;3.43;;;7.00;70.00;;;;;;5017455;28;20939;-47
2022/02/25 11:20:28;;;;;;;5.70;2.33;;;7.10;70.30;;;;;;5019171;28;20471;-47
2022/02/25 11:23:03;;;;;;;4.60;2.30;;;7.20;70.50;;;;;;5019832;28;20463;-47
2022/02/25 11:25:32;;;;;;;6.33;2.27;;;7.20;69.90;;;;;;5015952;28;20477;-47
2022/02/25 11:28:00;;;;;;;7.10;2.07;;;7.30;70.10;;;;;;5018065;28;20456;-47
2022/02/25 11:30:31;;;;;;;5.03;2.67;;;7.40;68.80;;;;;;5016362;28;20452;-47
2022/02/25 11:33:08;;;;;;;5.37;3.20;;;7.50;68.70;;;;;;5019333;28;20484;-47
2022/02/25 11:35:47;;;;;;;8.10;2.60;;;7.60;68.90;;;;;;5016079;28;20534;-47
2022/02/25 11:38:15;;;;;;;11.63;4.13;;;7.80;68.10;;;;;;5017302;28;21230;-47
2022/02/25 11:41:05;;;;;;;7.17;2.67;;;7.80;67.90;;;;;;5016408;28;20849;-47
2022/02/25 11:43:32;;;;;;;7.40;3.23;;;7.80;67.40;;;;;;5017575;28;20506;-47
2022/02/25 11:46:00;;;;;;;4.50;2.10;;;7.70;68.40;;;;;;5015465;28;20555;-47
2022/02/25 11:48:38;;;;;;;4.63;2.20;;;7.70;69.70;;;;;;5016330;28;20931;-46
2022/02/25 11:51:06;;;;;;;7.30;3.90;;;7.70;69.40;;;;;;5018960;28;20473;-46
2022/02/25 11:53:33;;;;;;;8.57;2.67;;;7.60;70.20;;;;;;5014778;28;20542;-46
2022/02/25 11:56:17;;;;;;;3.10;2.00;;;7.60;71.40;;;;;;5013406;28;20460;-46
2022/02/25 11:58:49;;;;;;;5.00;3.47;;;7.60;72.50;;;;;;5029803;28;20961;-47
2022/02/25 12:01:19;;;;;;;4.97;2.70;;;7.70;71.70;;;;;;5018946;28;20458;-47
2022/02/25 12:04:12;;;;;;;8.13;1.97;;;7.80;72.00;;;;;;5016520;28;20878;-47
2022/02/25 12:07:10;;;;;;;5.37;2.03;;;7.90;70.10;;;;;;5018488;28;20956;-47
2022/02/25 12:09:45;;;;;;;4.70;2.00;;;8.00;68.90;;;;;;4988904;28;20635;-48
2022/02/25 12:12:20;;;;;;;3.17;1.60;;;8.00;69.20;;;;;;5014783;28;20490;-48
2022/02/25 12:15:08;;;;;;;6.07;1.87;;;8.10;69.30;;;;;;5015444;28;20503;-48
2022/02/25 12:17:39;;;;;;;5.80;1.70;;;8.30;69.30;;;;;;5016281;28;20698;-48
2022/02/25 12:20:10;;;;;;;9.10;2.73;;;8.60;67.90;;;;;;5019755;28;20460;-48
2022/02/25 12:23:02;;;;;;;4.87;1.73;;;8.80;66.50;;;;;;5019736;28;20449;-48
2022/02/25 12:25:41;;;;;;;7.77;2.07;;;9.00;65.80;;;;;;5017037;28;20538;-48
2022/02/25 12:28:20;;;;;;;6.47;1.90;;;9.00;63.90;;;;;;5017460;28;20467;-47
2022/02/25 12:30:58;;;;;;;4.20;2.13;;;9.00;63.40;;;;;;5016720;28;20447;-48
2022/02/25 12:33:44;;;;;;;4.10;2.50;;;8.90;63.40;;;;;;5001761;28;20554;-47
2022/02/25 12:36:16;;;;;;;3.10;1.80;;;8.80;63.80;;;;;;5016164;28;20561;-47
2022/02/25 12:38:45;;;;;;;5.93;2.13;;;8.70;64.30;;;;;;5018741;28;20822;-47
2022/02/25 12:41:14;;;;;;;3.40;2.00;;;8.70;64.70;;;;;;5023949;28;20539;-48
2022/02/25 12:43:51;;;;;;;4.93;1.90;;;8.80;63.80;;;;;;5014678;28;20838;-48
2022/02/25 12:46:20;;;;;;;3.93;1.70;;;8.90;64.30;;;;;;5018695;28;21166;-48
2022/02/25 12:48:49;;;;;;;3.67;1.70;;;9.10;64.00;;;;;;4998379;28;20470;-47
2022/02/25 12:51:16;;;;;;;3.60;1.93;;;9.30;63.10;;;;;;5020236;28;20865;-47
2022/02/25 12:53:59;;;;;;;2.40;1.50;;;9.40;63.60;;;;;;5029937;28;20478;-47
2022/02/25 12:56:34;;;;;;;4.60;1.87;;;9.40;62.60;;;;;;5021184;28;20542;-47
2022/02/25 12:59:05;;;;;;;7.87;1.73;;;9.40;62.80;;;;;;5019186;28;21017;-47
2022/02/25 13:01:33;;;;;;;3.13;1.53;;;9.50;62.00;;;;;;5016480;28;20986;-48
2022/02/25 13:04:11;;;;;;;4.27;2.07;;;9.50;62.20;;;;;;5005382;28;20451;-48
2022/02/25 13:06:39;;;;;;;3.23;1.53;;;9.50;62.40;;;;;;5007803;28;20460;-48
2022/02/25 13:09:13;;;;;;;9.83;2.53;;;9.50;61.10;;;;;;5004386;28;20458;-48
2022/02/25 13:12:03;;;;;;;3.40;1.70;;;9.50;61.30;;;;;;5018564;28;20577;-48